Time;durP1;ratioP1;P1;durP2;ratioP2;P2;SDS_P1;SDS_P2;PMS_P1;PMS_P2;Temp;Humidity;BMP_temperature;BMP_pressure;BME280_temperature;BME280_humidity;BME280_pressure;Samples;Min_cycle;Max_cycle;Signal;HPM_P1;HPM_P2
2022/03/04 00:01:55;;;;;;;23.17;12.15;;;2.70;99.90;;;;;;5080623;28;20138;-67
2022/03/04 00:04:21;;;;;;;21.85;11.57;;;2.70;99.90;;;;;;5079851;28;20466;-68
2022/03/04 00:06:47;;;;;;;23.27;11.98;;;2.70;99.90;;;;;;5076917;28;21536;-67
2022/03/04 00:09:13;;;;;;;20.75;11.50;;;2.60;99.90;;;;;;5091892;28;20036;-67
2022/03/04 00:11:38;;;;;;;22.63;11.18;;;2.60;99.90;;;;;;5080577;28;20048;-67
2022/03/04 00:14:04;;;;;;;23.63;12.05;;;2.60;99.90;;;;;;5075913;28;20040;-66
2022/03/04 00:16:29;;;;;;;20.27;11.20;;;2.50;99.90;;;;;;5086795;28;20474;-67
2022/03/04 00:19:08;;;;;;;22.15;12.02;;;2.50;99.90;;;;;;5092215;28;20538;-67
2022/03/04 00:21:38;;;;;;;22.58;10.82;;;2.50;99.90;;;;;;5085857;28;20112;-67
2022/03/04 00:24:07;;;;;;;20.83;11.35;;;2.50;99.90;;;;;;5072182;28;20063;-67
2022/03/04 00:26:33;;;;;;;21.30;11.65;;;2.40;99.90;;;;;;5076626;28;20059;-67
2022/03/04 00:28:59;;;;;;;21.48;11.50;;;2.30;99.90;;;;;;5076170;28;20052;-67
2022/03/04 00:31:25;;;;;;;22.00;11.55;;;2.30;99.90;;;;;;5076252;28;20032;-67
2022/03/04 00:33:51;;;;;;;20.92;11.50;;;2.30;99.90;;;;;;5075470;28;20754;-67
2022/03/04 00:36:16;;;;;;;20.95;11.40;;;2.30;99.90;;;;;;5074399;28;20236;-67
2022/03/04 00:38:42;;;;;;;22.77;11.70;;;2.30;99.90;;;;;;5073324;28;20548;-67
2022/03/04 00:41:07;;;;;;;19.27;10.85;;;2.20;99.90;;;;;;5076529;28;20466;-67
2022/03/04 00:43:33;;;;;;;20.63;11.10;;;2.20;99.90;;;;;;5075904;28;20039;-67
2022/03/04 00:45:59;;;;;;;17.75;10.48;;;2.10;99.90;;;;;;5073571;28;20036;-68
2022/03/04 00:48:25;;;;;;;25.17;12.38;;;2.10;99.90;;;;;;5074642;28;20078;-67
2022/03/04 00:50:50;;;;;;;20.60;10.45;;;2.10;99.90;;;;;;5075243;28;20751;-67
2022/03/04 00:53:16;;;;;;;18.33;10.70;;;2.10;99.90;;;;;;5074353;28;20044;-67
2022/03/04 00:55:41;;;;;;;18.10;10.10;;;2.10;99.90;;;;;;5073663;28;20055;-67
2022/03/04 00:58:08;;;;;;;20.63;11.13;;;2.00;99.90;;;;;;5077365;28;20043;-67
2022/03/04 01:00:35;;;;;;;20.13;10.80;;;2.00;99.90;;;;;;5079494;28;20051;-67
2022/03/04 01:03:02;;;;;;;24.40;9.93;;;2.00;99.90;;;;;;5080497;28;20048;-67
2022/03/04 01:05:28;;;;;;;19.27;9.95;;;1.90;99.90;;;;;;5081526;28;20052;-67
2022/03/04 01:07:54;;;;;;;22.10;10.35;;;1.90;99.90;;;;;;5079922;28;20139;-67
2022/03/04 01:10:20;;;;;;;18.50;9.82;;;1.80;99.90;;;;;;5096735;28;21268;-67
2022/03/04 01:12:46;;;;;;;17.90;9.90;;;1.80;99.90;;;;;;5080832;28;20032;-67
2022/03/04 01:15:12;;;;;;;18.92;10.02;;;1.70;99.90;;;;;;5082148;28;20143;-67
2022/03/04 01:17:37;;;;;;;20.80;10.25;;;1.70;99.90;;;;;;5080893;28;20060;-67
2022/03/04 01:20:04;;;;;;;17.77;9.55;;;1.60;99.90;;;;;;5076298;28;20052;-67
2022/03/04 01:22:30;;;;;;;20.63;9.93;;;1.70;99.90;;;;;;5076295;28;20044;-66
2022/03/04 01:24:56;;;;;;;17.13;8.80;;;1.60;99.90;;;;;;5075770;28;20036;-67
2022/03/04 01:27:21;;;;;;;15.93;8.88;;;1.60;99.90;;;;;;5083768;28;20052;-67
2022/03/04 01:29:47;;;;;;;16.40;9.32;;;1.60;99.90;;;;;;5071812;28;20063;-67
2022/03/04 01:32:12;;;;;;;17.60;9.30;;;1.60;99.90;;;;;;5080237;28;20036;-67
2022/03/04 01:34:38;;;;;;;17.52;9.55;;;1.60;99.90;;;;;;5077851;28;20067;-67
2022/03/04 01:37:04;;;;;;;16.40;9.38;;;1.60;99.90;;;;;;5080457;28;20043;-67
2022/03/04 01:39:30;;;;;;;18.60;9.52;;;1.60;99.90;;;;;;5075209;28;20486;-67
2022/03/04 01:41:56;;;;;;;17.42;9.73;;;1.60;99.90;;;;;;5086136;28;20046;-67
2022/03/04 01:44:22;;;;;;;16.23;9.45;;;1.60;99.90;;;;;;5078617;28;20040;-67
2022/03/04 01:46:48;;;;;;;16.17;8.75;;;1.60;99.90;;;;;;5110043;27;20040;-67
2022/03/04 01:49:13;;;;;;;16.73;8.68;;;1.60;99.90;;;;;;5073548;28;20553;-68
2022/03/04 01:51:39;;;;;;;18.10;9.07;;;1.60;99.90;;;;;;5072606;28;20479;-67
2022/03/04 01:54:05;;;;;;;17.20;8.82;;;1.60;99.90;;;;;;5076355;28;20032;-67
2022/03/04 01:56:30;;;;;;;18.63;9.23;;;1.50;99.90;;;;;;5078418;28;20068;-67
2022/03/04 01:58:56;;;;;;;15.63;8.82;;;1.50;99.90;;;;;;5077611;28;20054;-67
2022/03/04 02:01:22;;;;;;;16.55;8.45;;;1.50;99.90;;;;;;5088502;28;20040;-67
2022/03/04 02:03:48;;;;;;;16.33;8.68;;;1.40;99.90;;;;;;5080334;28;20048;-67
2022/03/04 02:06:14;;;;;;;16.98;8.93;;;1.40;99.90;;;;;;5077437;28;20048;-67
2022/03/04 02:08:39;;;;;;;15.57;7.75;;;1.40;99.90;;;;;;5079754;28;20040;-67
2022/03/04 02:11:05;;;;;;;19.38;9.23;;;1.40;99.90;;;;;;5076220;28;20450;-67
2022/03/04 02:13:31;;;;;;;16.15;8.75;;;1.40;99.90;;;;;;5098887;28;20462;-67
2022/03/04 02:15:56;;;;;;;15.23;7.95;;;1.40;99.90;;;;;;5090710;28;20454;-67
2022/03/04 02:18:22;;;;;;;18.63;9.43;;;1.40;99.90;;;;;;5080960;28;20047;-67
2022/03/04 02:20:50;;;;;;;15.82;8.75;;;1.30;99.90;;;;;;5083284;28;20051;-67
2022/03/04 02:23:16;;;;;;;16.77;8.23;;;1.30;99.90;;;;;;5097961;28;20132;-67
2022/03/04 02:25:49;;;;;;;17.83;9.65;;;1.20;99.90;;;;;;5080418;28;20088;-66
2022/03/04 02:28:15;;;;;;;17.50;8.05;;;1.20;99.90;;;;;;5091597;28;20102;-67
2022/03/04 02:30:41;;;;;;;15.45;8.60;;;1.20;99.90;;;;;;5087249;28;20048;-67
2022/03/04 02:33:07;;;;;;;17.75;8.82;;;1.10;99.90;;;;;;5072849;28;20032;-67
2022/03/04 02:35:34;;;;;;;16.70;8.90;;;1.10;99.90;;;;;;5085960;28;20123;-67
2022/03/04 02:38:00;;;;;;;16.67;8.93;;;1.00;99.90;;;;;;5081369;28;20436;-67
2022/03/04 02:40:26;;;;;;;16.27;9.23;;;1.00;99.90;;;;;;5086780;28;20047;-67
2022/03/04 02:42:52;;;;;;;16.05;8.43;;;1.00;99.90;;;;;;5084216;28;20051;-66
2022/03/04 02:45:18;;;;;;;20.38;9.82;;;1.00;99.90;;;;;;5081525;28;20159;-66
2022/03/04 02:47:44;;;;;;;18.60;10.15;;;1.00;99.90;;;;;;5082721;28;20119;-67
2022/03/04 02:50:09;;;;;;;18.23;8.75;;;1.00;99.90;;;;;;5063927;28;20040;-66
2022/03/04 02:52:35;;;;;;;18.73;9.35;;;0.90;99.90;;;;;;5076983;28;20378;-67
2022/03/04 02:55:00;;;;;;;17.05;9.57;;;0.90;99.90;;;;;;5094736;28;20032;-67
2022/03/04 02:57:26;;;;;;;17.83;9.35;;;0.90;99.90;;;;;;5082751;28;20052;-67
2022/03/04 02:59:52;;;;;;;18.52;9.32;;;0.90;99.90;;;;;;5089794;28;20426;-66
2022/03/04 03:02:17;;;;;;;18.05;8.90;;;0.90;99.90;;;;;;5086483;28;20042;-67
2022/03/04 03:04:43;;;;;;;18.88;9.68;;;0.90;99.90;;;;;;5084043;28;20043;-67
2022/03/04 03:07:08;;;;;;;17.25;8.80;;;0.90;99.90;;;;;;5079445;28;21555;-67
2022/03/04 03:09:34;;;;;;;17.98;9.30;;;0.90;99.90;;;;;;5091039;28;20112;-67
2022/03/04 03:12:00;;;;;;;17.45;9.18;;;0.90;99.90;;;;;;5083782;28;20125;-67
2022/03/04 03:14:25;;;;;;;18.45;9.32;;;0.90;99.90;;;;;;5085344;28;20043;-67
2022/03/04 03:16:51;;;;;;;18.20;10.05;;;0.90;99.90;;;;;;5089278;28;20493;-67
2022/03/04 03:19:17;;;;;;;18.27;10.05;;;0.90;99.90;;;;;;5087917;28;20398;-67
2022/03/04 03:21:42;;;;;;;19.20;10.18;;;0.80;99.90;;;;;;5075462;28;20055;-67
2022/03/04 03:24:08;;;;;;;18.73;9.82;;;0.80;99.90;;;;;;5079657;28;20051;-67
2022/03/04 03:26:34;;;;;;;21.13;10.65;;;0.80;99.90;;;;;;5087214;28;20441;-67
2022/03/04 03:28:59;;;;;;;19.95;10.45;;;0.80;99.90;;;;;;5084315;28;20468;-67
2022/03/04 03:31:25;;;;;;;21.42;10.32;;;0.80;99.90;;;;;;5086711;28;20043;-67
2022/03/04 03:33:51;;;;;;;21.77;10.65;;;0.70;99.90;;;;;;5093147;28;20104;-67
2022/03/04 03:36:16;;;;;;;18.45;10.18;;;0.80;99.90;;;;;;5094062;28;20084;-67
2022/03/04 03:38:42;;;;;;;20.00;9.90;;;0.70;99.90;;;;;;5097068;28;20111;-67
2022/03/04 03:41:09;;;;;;;19.85;10.55;;;0.70;99.90;;;;;;5110063;27;20055;-67
2022/03/04 03:43:34;;;;;;;19.35;10.45;;;0.70;99.90;;;;;;5069758;28;20584;-66
2022/03/04 03:46:00;;;;;;;19.58;10.38;;;0.70;99.90;;;;;;5098622;28;20047;-67
2022/03/04 03:48:25;;;;;;;19.15;10.05;;;0.70;99.90;;;;;;5082179;28;20128;-67
2022/03/04 03:50:51;;;;;;;21.65;10.48;;;0.60;99.90;;;;;;5081462;28;20040;-67
2022/03/04 03:53:17;;;;;;;21.15;10.75;;;0.60;99.90;;;;;;5090336;28;20036;-67
2022/03/04 03:55:42;;;;;;;22.98;11.27;;;0.60;99.90;;;;;;5082460;28;20600;-67
2022/03/04 03:58:08;;;;;;;20.83;11.07;;;0.60;99.90;;;;;;5086748;28;20063;-67
2022/03/04 04:00:34;;;;;;;21.67;11.18;;;0.70;99.90;;;;;;5075337;28;20048;-67
2022/03/04 04:03:00;;;;;;;22.23;11.82;;;0.70;99.90;;;;;;5076114;28;20051;-67
2022/03/04 04:05:26;;;;;;;23.65;12.30;;;0.70;99.90;;;;;;5073916;28;20052;-67
2022/03/04 04:07:52;;;;;;;22.27;11.70;;;0.60;99.90;;;;;;5074317;28;20032;-67
2022/03/04 04:10:17;;;;;;;26.10;12.75;;;0.50;99.90;;;;;;5102423;28;20524;-67
2022/03/04 04:12:43;;;;;;;23.92;12.32;;;0.50;99.90;;;;;;5075749;28;20139;-67
2022/03/04 04:15:09;;;;;;;24.25;12.20;;;0.50;99.90;;;;;;5078498;28;20046;-67
2022/03/04 04:17:35;;;;;;;21.27;12.10;;;0.60;99.90;;;;;;5075524;28;20121;-67
2022/03/04 04:20:01;;;;;;;23.88;12.38;;;0.60;99.90;;;;;;5076704;28;20131;-66
2022/03/04 04:22:26;;;;;;;23.55;12.48;;;0.60;99.90;;;;;;5076987;28;20075;-67
2022/03/04 04:24:52;;;;;;;24.05;13.40;;;0.50;99.90;;;;;;5074443;28;20051;-67
2022/03/04 04:27:17;;;;;;;24.30;12.93;;;0.50;99.90;;;;;;5073027;28;20044;-67
2022/03/04 04:29:43;;;;;;;24.17;12.55;;;0.50;99.90;;;;;;5074749;28;20052;-67
2022/03/04 04:32:09;;;;;;;26.15;12.27;;;0.50;99.90;;;;;;5073085;28;20036;-67
2022/03/04 04:34:35;;;;;;;27.77;13.75;;;0.50;99.90;;;;;;5082014;28;20040;-67
2022/03/04 04:37:00;;;;;;;24.33;13.25;;;0.50;99.90;;;;;;5078981;28;20036;-67
2022/03/04 04:39:26;;;;;;;24.65;13.45;;;0.50;99.90;;;;;;5081596;28;20044;-67
2022/03/04 04:41:52;;;;;;;23.02;13.00;;;0.40;99.90;;;;;;5080972;28;20354;-67
2022/03/04 04:44:17;;;;;;;23.17;12.60;;;0.40;99.90;;;;;;5080973;28;20044;-67
2022/03/04 04:46:43;;;;;;;23.30;13.00;;;0.40;99.90;;;;;;5082083;28;20102;-67
2022/03/04 04:49:09;;;;;;;25.90;13.80;;;0.40;99.90;;;;;;5080671;28;20467;-67
2022/03/04 04:51:35;;;;;;;26.00;13.88;;;0.40;99.90;;;;;;5083063;28;20084;-67
2022/03/04 04:54:01;;;;;;;25.52;14.07;;;0.40;99.90;;;;;;5077492;28;20091;-67
2022/03/04 04:56:26;;;;;;;25.30;13.80;;;0.40;99.90;;;;;;5099732;28;20377;-67
2022/03/04 04:58:52;;;;;;;26.10;14.27;;;0.40;99.90;;;;;;5083237;28;20119;-67
2022/03/04 05:01:17;;;;;;;23.33;13.55;;;0.40;99.90;;;;;;5096639;28;20036;-67
2022/03/04 05:03:43;;;;;;;27.33;14.43;;;0.30;99.90;;;;;;5096926;28;20048;-67
2022/03/04 05:06:09;;;;;;;26.52;14.30;;;0.30;99.90;;;;;;5075845;28;20063;-67
2022/03/04 05:08:34;;;;;;;28.85;15.50;;;0.30;99.90;;;;;;5076456;28;20028;-67
2022/03/04 05:11:00;;;;;;;25.65;14.70;;;0.30;99.90;;;;;;5078816;28;20081;-68
2022/03/04 05:13:26;;;;;;;27.23;14.05;;;0.30;99.90;;;;;;5080639;28;20052;-67
2022/03/04 05:15:52;;;;;;;26.05;15.07;;;0.20;99.90;;;;;;5079304;28;20036;-67
2022/03/04 05:18:18;;;;;;;25.92;15.18;;;0.20;99.90;;;;;;5083813;28;20469;-67
2022/03/04 05:20:44;;;;;;;29.50;14.45;;;0.20;99.90;;;;;;5086328;28;20050;-68
2022/03/04 05:23:10;;;;;;;29.25;15.98;;;0.10;99.90;;;;;;5074460;28;20130;-67
2022/03/04 05:25:36;;;;;;;29.02;16.20;;;0.10;99.90;;;;;;5083544;28;21214;-67
2022/03/04 05:28:02;;;;;;;30.05;16.80;;;0.10;99.90;;;;;;5082206;28;20056;-67
2022/03/04 05:30:28;;;;;;;28.95;15.75;;;0.10;99.90;;;;;;5086804;28;20047;-68
2022/03/04 05:32:53;;;;;;;33.83;17.65;;;0.10;99.90;;;;;;5086083;28;20051;-67
2022/03/04 05:35:19;;;;;;;31.92;16.98;;;0.00;99.90;;;;;;5079228;28;20047;-67
2022/03/04 05:37:44;;;;;;;30.55;17.15;;;0.00;99.90;;;;;;5086146;28;20032;-67
2022/03/04 05:40:10;;;;;;;31.60;16.75;;;0.00;99.90;;;;;;5084842;28;20060;-67
2022/03/04 05:42:36;;;;;;;32.58;17.23;;;0.00;99.90;;;;;;5088660;28;20036;-67
2022/03/04 05:45:02;;;;;;;30.50;16.40;;;0.00;99.90;;;;;;5080423;28;20044;-68
2022/03/04 05:47:28;;;;;;;32.85;16.75;;;0.00;99.90;;;;;;5083577;28;20062;-67
2022/03/04 05:49:53;;;;;;;31.35;17.35;;;0.00;99.90;;;;;;5080753;28;20048;-68
2022/03/04 05:52:19;;;;;;;29.75;17.00;;;0.00;99.90;;;;;;5082109;28;20047;-68
2022/03/04 05:54:44;;;;;;;34.90;16.58;;;-0.10;99.90;;;;;;5086937;28;20335;-67
2022/03/04 05:57:10;;;;;;;31.02;16.83;;;-0.10;99.90;;;;;;5079497;28;20135;-67
2022/03/04 05:59:35;;;;;;;31.73;16.88;;;-0.10;99.90;;;;;;5086901;28;20044;-67
2022/03/04 06:02:01;;;;;;;37.05;19.17;;;-0.20;99.90;;;;;;5077006;28;20118;-67
2022/03/04 06:04:27;;;;;;;33.40;17.88;;;-0.20;99.90;;;;;;5081822;28;20102;-67
2022/03/04 06:06:53;;;;;;;33.38;17.58;;;-0.10;99.90;;;;;;5084868;28;20051;-67
2022/03/04 06:09:21;;;;;;;36.38;18.90;;;-0.10;99.90;;;;;;5080987;28;20048;-68
2022/03/04 06:11:46;;;;;;;36.35;19.70;;;-0.10;99.90;;;;;;5085315;28;20044;-67
2022/03/04 06:14:12;;;;;;;40.85;19.90;;;-0.10;99.90;;;;;;5084711;28;20962;-67
2022/03/04 06:16:37;;;;;;;35.65;18.60;;;-0.10;99.90;;;;;;5085372;28;20448;-67
2022/03/04 06:19:04;;;;;;;33.00;17.88;;;-0.10;99.90;;;;;;5082668;28;20101;-67
2022/03/04 06:21:32;;;;;;;38.17;19.13;;;0.00;99.90;;;;;;5085186;28;20047;-67
2022/03/04 06:23:58;;;;;;;34.00;18.42;;;0.00;99.90;;;;;;5084178;28;20517;-67
2022/03/04 06:26:24;;;;;;;33.47;17.67;;;0.00;99.90;;;;;;5071831;28;20040;-67
2022/03/04 06:28:50;;;;;;;36.92;18.55;;;0.00;99.90;;;;;;5087071;28;20425;-67
2022/03/04 06:31:15;;;;;;;42.38;19.55;;;0.00;99.90;;;;;;5112380;27;20045;-68
2022/03/04 06:33:42;;;;;;;39.53;19.48;;;0.10;99.90;;;;;;5088415;28;20377;-67
2022/03/04 06:36:14;;;;;;;35.80;18.83;;;0.10;99.90;;;;;;5088058;28;20450;-67
2022/03/04 06:38:42;;;;;;;34.60;18.95;;;0.10;99.90;;;;;;5086722;28;20032;-66
2022/03/04 06:41:09;;;;;;;36.13;18.08;;;0.00;99.90;;;;;;5085395;28;20115;-66
2022/03/04 06:43:35;;;;;;;35.28;18.70;;;0.10;99.90;;;;;;5092096;28;20052;-66
2022/03/04 06:46:04;;;;;;;36.53;19.02;;;0.10;99.90;;;;;;5098133;28;20093;-66
2022/03/04 06:48:29;;;;;;;36.00;19.48;;;0.10;99.90;;;;;;5084668;28;20052;-66
2022/03/04 06:50:56;;;;;;;33.22;18.30;;;0.20;99.90;;;;;;5089510;28;20040;-66
2022/03/04 06:53:21;;;;;;;35.88;18.85;;;0.10;99.90;;;;;;5083504;28;20044;-66
2022/03/04 06:55:48;;;;;;;38.17;19.17;;;0.20;99.90;;;;;;5085641;28;20106;-66
2022/03/04 06:58:14;;;;;;;39.67;19.70;;;0.20;99.90;;;;;;5087902;28;20550;-66
2022/03/04 07:00:41;;;;;;;34.90;19.05;;;0.30;99.90;;;;;;5092260;28;20112;-66
2022/03/04 07:03:07;;;;;;;39.15;19.20;;;0.30;99.90;;;;;;5091908;28;20427;-66
2022/03/04 07:05:33;;;;;;;34.47;18.02;;;0.30;99.90;;;;;;5087247;28;20147;-66
2022/03/04 07:07:59;;;;;;;35.50;19.08;;;0.40;99.90;;;;;;5079836;28;20139;-66
2022/03/04 07:10:25;;;;;;;35.17;18.95;;;0.40;99.90;;;;;;5092044;28;20079;-66
2022/03/04 07:12:50;;;;;;;37.13;19.35;;;0.40;99.90;;;;;;5089399;28;20108;-67
2022/03/04 07:15:17;;;;;;;37.95;19.60;;;0.50;99.90;;;;;;5097832;28;20077;-66
2022/03/04 07:17:42;;;;;;;37.13;20.08;;;0.50;99.90;;;;;;5079041;28;20067;-67
2022/03/04 07:20:09;;;;;;;38.33;19.90;;;0.50;99.90;;;;;;5094885;28;20477;-66
2022/03/04 07:22:35;;;;;;;36.45;19.83;;;0.50;99.90;;;;;;5078177;28;20036;-66
2022/03/04 07:25:06;;;;;;;37.28;19.77;;;0.50;99.90;;;;;;5089034;28;20040;-66
2022/03/04 07:27:36;;;;;;;38.13;19.45;;;0.60;99.90;;;;;;5082153;28;20372;-66
2022/03/04 07:30:04;;;;;;;36.30;19.08;;;0.60;99.90;;;;;;5095323;28;20031;-66
2022/03/04 07:32:31;;;;;;;38.40;20.52;;;0.60;99.90;;;;;;5084478;28;20478;-68
2022/03/04 07:34:58;;;;;;;36.75;19.77;;;0.70;99.90;;;;;;5071888;28;20044;-67
2022/03/04 07:37:23;;;;;;;37.97;19.70;;;0.70;99.90;;;;;;5084818;28;20040;-66
2022/03/04 07:39:49;;;;;;;37.90;20.33;;;0.70;99.90;;;;;;5081336;28;20047;-67
2022/03/04 07:42:14;;;;;;;40.53;20.48;;;0.70;99.90;;;;;;5086967;28;20040;-67
2022/03/04 07:44:40;;;;;;;41.33;20.80;;;0.60;99.90;;;;;;5088090;28;20457;-66
2022/03/04 07:47:06;;;;;;;40.95;20.75;;;0.60;99.90;;;;;;5086390;28;20035;-67
2022/03/04 07:49:31;;;;;;;39.78;20.17;;;0.70;99.90;;;;;;5088936;28;20130;-66
2022/03/04 07:51:57;;;;;;;35.75;18.80;;;0.70;99.90;;;;;;5088591;28;20433;-67
2022/03/04 07:54:23;;;;;;;37.80;20.25;;;0.80;99.90;;;;;;5087258;28;20047;-67
2022/03/04 07:56:49;;;;;;;39.55;19.60;;;0.80;99.90;;;;;;5089762;28;20048;-67
2022/03/04 07:59:14;;;;;;;40.45;19.90;;;0.90;99.90;;;;;;5086755;28;20051;-67
2022/03/04 08:01:40;;;;;;;43.80;22.05;;;0.90;99.90;;;;;;5088931;28;20074;-66
2022/03/04 08:04:06;;;;;;;37.35;19.92;;;0.90;99.90;;;;;;5088434;28;20067;-66
2022/03/04 08:06:32;;;;;;;40.35;20.55;;;1.00;99.90;;;;;;5087135;28;20048;-66
2022/03/04 08:08:57;;;;;;;37.10;20.02;;;1.00;99.90;;;;;;5087921;28;20113;-67
2022/03/04 08:11:23;;;;;;;44.22;22.33;;;1.00;99.90;;;;;;5094744;28;20104;-67
2022/03/04 08:13:49;;;;;;;41.60;20.52;;;1.00;99.90;;;;;;5093429;28;20488;-67
2022/03/04 08:16:14;;;;;;;38.80;19.83;;;1.10;99.90;;;;;;5092780;28;20036;-67
2022/03/04 08:18:40;;;;;;;37.97;20.20;;;1.10;99.90;;;;;;5092833;28;20101;-67
2022/03/04 08:21:06;;;;;;;39.90;20.60;;;1.00;99.90;;;;;;5091572;28;20029;-66
2022/03/04 08:23:32;;;;;;;39.63;20.60;;;1.10;99.90;;;;;;5074655;28;20118;-66
2022/03/04 08:26:02;;;;;;;37.92;20.58;;;1.10;99.90;;;;;;5071141;28;20043;-66
2022/03/04 08:28:28;;;;;;;37.65;21.27;;;1.30;99.90;;;;;;5090096;28;20055;-66
2022/03/04 08:30:53;;;;;;;39.92;20.15;;;1.30;99.90;;;;;;5090019;28;20060;-66
2022/03/04 08:33:19;;;;;;;38.22;19.85;;;1.40;99.90;;;;;;5086757;28;20067;-66
2022/03/04 08:35:44;;;;;;;35.33;19.13;;;1.50;99.90;;;;;;5097144;28;20059;-66
2022/03/04 08:38:10;;;;;;;37.70;20.10;;;1.60;99.90;;;;;;5087749;28;20059;-66
2022/03/04 08:40:35;;;;;;;36.47;19.42;;;1.70;99.90;;;;;;5086224;28;20076;-66
2022/03/04 08:43:01;;;;;;;34.45;19.38;;;1.60;99.90;;;;;;5091360;28;20096;-68
2022/03/04 08:45:27;;;;;;;37.67;19.75;;;1.70;99.90;;;;;;5091553;28;20044;-67
2022/03/04 08:47:52;;;;;;;38.30;20.10;;;1.70;99.90;;;;;;5089661;28;20036;-67
2022/03/04 08:50:19;;;;;;;37.50;20.25;;;1.70;99.90;;;;;;5091074;28;20573;-67
2022/03/04 08:52:45;;;;;;;37.50;20.30;;;1.70;99.90;;;;;;5089925;28;20493;-67
2022/03/04 08:55:14;;;;;;;36.45;20.33;;;1.80;99.90;;;;;;5089867;28;20055;-67
2022/03/04 08:57:42;;;;;;;37.55;20.73;;;1.80;99.90;;;;;;5089657;28;20056;-67
2022/03/04 09:00:09;;;;;;;40.20;20.85;;;1.80;99.90;;;;;;5089694;28;20039;-67
2022/03/04 09:02:35;;;;;;;35.67;19.90;;;1.90;99.90;;;;;;5090875;28;20044;-67
2022/03/04 09:05:00;;;;;;;40.63;21.15;;;1.90;99.90;;;;;;5085868;28;20047;-67
2022/03/04 09:07:26;;;;;;;40.90;21.63;;;2.00;99.90;;;;;;5090398;28;20054;-67
2022/03/04 09:09:52;;;;;;;41.67;21.92;;;2.20;99.90;;;;;;5107708;28;20191;-67
2022/03/04 09:12:19;;;;;;;38.33;21.05;;;2.30;99.90;;;;;;5109531;28;20064;-67
2022/03/04 09:14:45;;;;;;;39.28;21.55;;;2.40;99.90;;;;;;5073126;28;20057;-67
2022/03/04 09:17:11;;;;;;;43.20;22.23;;;2.60;99.90;;;;;;5100054;28;20413;-66
2022/03/04 09:19:36;;;;;;;36.97;21.60;;;2.70;99.90;;;;;;5107846;28;20050;-66
2022/03/04 09:22:03;;;;;;;42.60;21.85;;;2.80;99.90;;;;;;5110036;28;20126;-66
2022/03/04 09:24:29;;;;;;;36.92;20.77;;;2.80;99.90;;;;;;5108079;28;20052;-66
2022/03/04 09:26:55;;;;;;;39.75;20.83;;;2.80;99.90;;;;;;5090721;28;20058;-66
2022/03/04 09:29:20;;;;;;;36.22;19.77;;;2.70;99.90;;;;;;5094170;28;20511;-66
2022/03/04 09:31:46;;;;;;;37.00;21.10;;;2.70;99.90;;;;;;5107649;28;20052;-67
2022/03/04 09:34:12;;;;;;;39.05;21.80;;;2.70;99.90;;;;;;5107531;28;20160;-66
2022/03/04 09:36:38;;;;;;;37.20;20.50;;;2.70;99.90;;;;;;5093289;28;20497;-66
2022/03/04 09:39:04;;;;;;;37.65;21.33;;;2.80;99.90;;;;;;5096042;28;20117;-67
2022/03/04 09:41:30;;;;;;;42.70;22.58;;;2.80;99.90;;;;;;5087792;28;20106;-67
2022/03/04 09:43:57;;;;;;;40.97;22.58;;;2.80;99.90;;;;;;5108318;28;20047;-66
2022/03/04 09:46:23;;;;;;;42.85;22.27;;;2.70;99.90;;;;;;5094386;28;20400;-66
2022/03/04 09:48:51;;;;;;;44.40;23.42;;;2.70;99.90;;;;;;5103221;28;20036;-66
2022/03/04 09:51:17;;;;;;;41.63;21.98;;;2.70;99.90;;;;;;5100951;28;20043;-66
2022/03/04 09:53:44;;;;;;;44.13;24.38;;;2.80;99.90;;;;;;5084494;28;20036;-66
2022/03/04 09:56:09;;;;;;;41.58;22.70;;;2.80;99.90;;;;;;5099938;28;20044;-66
2022/03/04 09:58:37;;;;;;;41.20;22.48;;;2.90;99.90;;;;;;5108236;28;20399;-68
2022/03/04 10:01:11;;;;;;;37.78;21.88;;;2.90;99.90;;;;;;5105925;28;20108;-66
2022/03/04 10:03:50;;;;;;;39.63;22.55;;;3.00;99.90;;;;;;5092173;28;20047;-66
2022/03/04 10:06:18;;;;;;;42.03;22.70;;;3.00;99.90;;;;;;5098072;28;20040;-66
2022/03/04 10:08:51;;;;;;;43.83;23.60;;;2.90;99.90;;;;;;5097983;28;20163;-66
2022/03/04 10:11:26;;;;;;;41.22;22.85;;;2.90;99.90;;;;;;5085143;28;20063;-66
2022/03/04 10:13:54;;;;;;;44.65;23.60;;;3.00;99.90;;;;;;5109746;28;20039;-66
2022/03/04 10:16:31;;;;;;;46.40;22.17;;;2.90;99.90;;;;;;5101760;28;20035;-65
2022/03/04 10:19:10;;;;;;;42.03;22.77;;;2.80;99.90;;;;;;5078886;28;20054;-66
2022/03/04 10:21:56;;;;;;;43.38;23.67;;;2.90;99.90;;;;;;5107730;28;20071;-66
2022/03/04 10:24:23;;;;;;;42.00;22.50;;;3.00;99.90;;;;;;5094879;28;20048;-66
2022/03/04 10:27:16;;;;;;;44.75;22.60;;;3.10;99.90;;;;;;5105595;28;20429;-66
2022/03/04 10:29:44;;;;;;;39.80;21.63;;;3.10;99.90;;;;;;5079691;28;20112;-66
2022/03/04 10:32:14;;;;;;;40.63;22.20;;;3.10;99.90;;;;;;5107824;28;20059;-66
2022/03/04 10:34:52;;;;;;;41.08;21.15;;;3.20;99.90;;;;;;5108548;28;20050;-66
2022/03/04 10:37:48;;;;;;;41.40;22.85;;;3.20;99.90;;;;;;5106543;28;20168;-66
2022/03/04 10:40:22;;;;;;;37.83;19.83;;;3.30;99.90;;;;;;5076643;28;20419;-66
2022/03/04 10:42:53;;;;;;;40.70;21.45;;;3.40;99.90;;;;;;5080636;28;20469;-66
2022/03/04 10:45:33;;;;;;;40.95;21.60;;;3.50;99.90;;;;;;5090874;28;20392;-66
2022/03/04 10:47:59;;;;;;;39.38;21.60;;;3.50;99.90;;;;;;5108352;28;20489;-66
2022/03/04 10:50:39;;;;;;;40.90;21.80;;;3.60;99.90;;;;;;5089952;28;20495;-66
2022/03/04 10:53:13;;;;;;;40.67;21.85;;;3.70;99.90;;;;;;5105318;28;20048;-66
2022/03/04 10:55:59;;;;;;;40.55;22.23;;;3.70;99.90;;;;;;5105611;28;20052;-65
2022/03/04 10:58:33;;;;;;;;;;;3.80;99.90;;;;;;5103810;28;20056;-66
2022/03/04 11:01:09;;;;;;;40.58;20.90;;;3.80;99.90;;;;;;5092378;28;19931;-65
2022/03/04 11:03:36;;;;;;;39.40;21.23;;;3.80;99.90;;;;;;5106449;28;20175;-65
2022/03/04 11:06:07;;;;;;;38.50;20.58;;;3.90;99.90;;;;;;5102735;28;20055;-71
2022/03/04 11:08:33;;;;;;;38.42;20.75;;;3.90;99.90;;;;;;5093149;28;20043;-66
2022/03/04 11:11:01;;;;;;;39.63;20.67;;;4.00;99.90;;;;;;5088289;28;20032;-67
2022/03/04 11:13:29;;;;;;;41.83;21.60;;;4.00;99.90;;;;;;5090775;28;20059;-66
2022/03/04 11:15:55;;;;;;;37.90;21.55;;;4.10;99.90;;;;;;5089939;28;20081;-65
2022/03/04 11:18:22;;;;;;;38.42;21.38;;;4.10;99.90;;;;;;5087213;28;20482;-66
2022/03/04 11:20:55;;;;;;;37.75;20.13;;;4.10;99.90;;;;;;5087884;28;20036;-66
2022/03/04 11:23:28;;;;;;;35.22;18.80;;;4.20;99.90;;;;;;5087217;28;20155;-67
2022/03/04 11:26:00;;;;;;;35.97;20.02;;;4.30;99.90;;;;;;5088203;28;20046;-67
2022/03/04 11:28:41;;;;;;;35.80;19.30;;;4.30;99.90;;;;;;5086935;28;20036;-66
2022/03/04 11:31:08;;;;;;;36.45;19.85;;;4.40;99.90;;;;;;5090076;28;20059;-66
2022/03/04 11:33:54;;;;;;;35.78;20.70;;;4.40;99.90;;;;;;5086119;28;20123;-66
2022/03/04 11:36:27;;;;;;;37.58;21.05;;;4.40;99.90;;;;;;5093286;28;20115;-66
2022/03/04 11:38:55;;;;;;;36.75;19.98;;;4.40;99.90;;;;;;5092064;28;20036;-66
2022/03/04 11:41:27;;;;;;;37.60;19.60;;;4.40;99.90;;;;;;5074201;28;20052;-66
2022/03/04 11:43:57;;;;;;;39.22;20.23;;;4.50;99.90;;;;;;5083157;28;20335;-66
2022/03/04 11:46:28;;;;;;;41.08;22.00;;;4.50;99.90;;;;;;5109272;28;20079;-66
2022/03/04 11:49:32;;;;;;;38.78;20.48;;;4.50;99.90;;;;;;5098423;28;20428;-66
2022/03/04 11:52:09;;;;;;;36.55;19.83;;;4.50;99.90;;;;;;5084215;28;20090;-66
2022/03/04 11:54:42;;;;;;;39.10;21.13;;;4.60;99.90;;;;;;5085308;28;20044;-66
2022/03/04 11:57:37;;;;;;;36.17;19.92;;;4.60;99.90;;;;;;5091927;28;20088;-66
2022/03/04 12:00:17;;;;;;;38.58;20.27;;;4.70;99.90;;;;;;5089208;28;20108;-66
2022/03/04 12:02:51;;;;;;;36.67;19.77;;;4.70;99.90;;;;;;5089159;28;20265;-66
2022/03/04 12:05:25;;;;;;;33.13;18.98;;;4.80;99.90;;;;;;5088453;28;20063;-66
2022/03/04 12:07:56;;;;;;;32.40;18.40;;;4.80;99.90;;;;;;5089417;28;20036;-67
2022/03/04 12:10:22;;;;;;;32.53;18.73;;;4.90;99.90;;;;;;5062238;28;20579;-66
2022/03/04 12:13:05;;;;;;;34.40;18.73;;;4.90;99.90;;;;;;5086687;28;20230;-64
2022/03/04 12:15:37;;;;;;;32.15;17.88;;;4.90;99.90;;;;;;5086722;28;20040;-64
2022/03/04 12:18:15;;;;;;;34.60;18.85;;;4.90;99.90;;;;;;5086982;28;20117;-65
2022/03/04 12:20:40;;;;;;;31.88;17.50;;;5.00;99.90;;;;;;5089301;28;20044;-64
2022/03/04 12:23:19;;;;;;;31.13;18.05;;;5.00;99.90;;;;;;5088867;28;20097;-65
2022/03/04 12:25:53;;;;;;;31.27;18.13;;;5.10;99.90;;;;;;5093508;28;20055;-65
2022/03/04 12:28:32;;;;;;;32.05;17.08;;;5.20;99.90;;;;;;5095501;28;20628;-64
2022/03/04 12:31:00;;;;;;;32.08;17.85;;;5.20;99.90;;;;;;5092885;28;20039;-64
2022/03/04 12:33:26;;;;;;;31.77;17.75;;;5.20;99.90;;;;;;5100071;28;20477;-64
2022/03/04 12:35:57;;;;;;;32.10;17.17;;;5.30;99.90;;;;;;5090294;28;20039;-64
2022/03/04 12:38:23;;;;;;;29.20;17.65;;;5.30;99.90;;;;;;5089548;28;20043;-65
2022/03/04 12:40:49;;;;;;;33.17;18.58;;;5.40;99.90;;;;;;5091226;28;20145;-65